createdAt,value
2018-02-20T00:00:29.328Z,14.00
2018-02-20T00:03:02.745Z,14.00
2018-02-20T00:05:31.815Z,14.00
2018-02-20T00:08:00.855Z,14.00
2018-02-20T00:10:29.157Z,14.00
2018-02-20T00:12:57.487Z,13.90
2018-02-20T00:15:25.764Z,13.90
2018-02-20T00:17:54.054Z,13.90
2018-02-20T00:20:22.696Z,13.90
2018-02-20T00:22:50.999Z,13.90
2018-02-20T00:25:19.327Z,13.90
2018-02-20T00:27:47.603Z,13.90
2018-02-20T00:30:15.903Z,13.80
2018-02-20T00:32:44.234Z,13.80
2018-02-20T00:35:12.852Z,13.80
2018-02-20T00:37:41.146Z,13.80
2018-02-20T00:40:10.121Z,13.80
2018-02-20T00:42:38.416Z,13.80
2018-02-20T00:45:07.397Z,13.80
2018-02-20T00:47:35.715Z,13.80
2018-02-20T00:50:03.990Z,13.80
2018-02-20T00:52:32.294Z,13.70
2018-02-20T00:55:00.576Z,13.70
2018-02-20T00:57:28.861Z,13.70
2018-02-20T00:59:57.173Z,13.70
2018-02-20T01:02:25.918Z,13.70
2018-02-20T01:04:54.198Z,13.70
2018-02-20T01:07:22.515Z,13.70
2018-02-20T01:09:51.199Z,13.70
2018-02-20T01:12:19.914Z,13.70
2018-02-20T01:14:48.221Z,13.70
2018-02-20T01:17:16.514Z,13.70
2018-02-20T01:19:44.810Z,13.60
2018-02-20T01:22:13.483Z,13.60
2018-02-20T01:24:42.183Z,13.60
2018-02-20T01:27:10.853Z,13.60
2018-02-20T01:29:39.131Z,13.60
2018-02-20T01:32:07.468Z,13.60
2018-02-20T01:34:35.748Z,13.60
2018-02-20T01:37:04.035Z,13.60
2018-02-20T01:39:32.417Z,13.60
2018-02-20T01:42:00.735Z,13.50
2018-02-20T01:44:29.667Z,13.50
2018-02-20T01:46:57.948Z,13.50
2018-02-20T01:49:26.248Z,13.50
2018-02-20T01:51:54.535Z,13.50
2018-02-20T01:54:22.891Z,13.50
2018-02-20T01:56:51.213Z,13.50
2018-02-20T01:59:19.897Z,13.50
2018-02-20T02:01:48.580Z,13.50
2018-02-20T02:04:17.547Z,13.50
2018-02-20T02:06:45.875Z,13.50
2018-02-20T02:09:14.547Z,13.40
2018-02-20T02:11:42.880Z,13.50
2018-02-20T02:14:11.258Z,13.50
2018-02-20T02:16:39.563Z,13.50
2018-02-20T02:19:08.534Z,13.50
2018-02-20T02:21:36.826Z,13.50
2018-02-20T02:24:05.543Z,13.40
2018-02-20T02:26:33.831Z,13.50
2018-02-20T02:29:02.108Z,13.40
2018-02-20T02:31:30.420Z,13.40
2018-02-20T02:33:58.711Z,13.40
2018-02-20T02:36:27.408Z,13.40
2018-02-20T02:38:55.973Z,13.40
2018-02-20T02:41:24.688Z,13.40
2018-02-20T02:43:53.111Z,13.40
2018-02-20T02:46:21.408Z,13.40
2018-02-20T02:48:49.695Z,13.40
2018-02-20T02:51:18.021Z,13.40
2018-02-20T02:53:46.371Z,13.40
2018-02-20T02:56:15.153Z,13.40
2018-02-20T02:58:43.888Z,13.40
2018-02-20T03:01:12.208Z,13.40
2018-02-20T03:03:40.909Z,13.40
2018-02-20T03:06:09.677Z,13.40
2018-02-20T03:08:38.354Z,13.40
2018-02-20T03:11:06.735Z,13.40
2018-02-20T03:13:35.110Z,13.30
2018-02-20T03:16:03.394Z,13.30
2018-02-20T03:18:31.767Z,13.30
2018-02-20T03:21:00.155Z,13.30
2018-02-20T03:23:28.851Z,13.30
2018-02-20T03:25:57.638Z,13.30
2018-02-20T03:28:26.406Z,13.30
2018-02-20T03:30:54.732Z,13.30
2018-02-20T03:33:23.015Z,13.30
2018-02-20T03:35:51.341Z,13.30
2018-02-20T03:38:19.718Z,13.30
2018-02-20T03:40:48.019Z,13.30
2018-02-20T03:43:16.318Z,13.30
2018-02-20T03:45:44.623Z,13.30
2018-02-20T03:48:12.953Z,13.20
2018-02-20T03:50:42.028Z,13.20
2018-02-20T03:53:10.716Z,13.20
2018-02-20T03:55:39.013Z,13.20
2018-02-20T03:58:08.076Z,13.20
2018-02-20T04:00:36.360Z,13.20
2018-02-20T04:03:04.684Z,13.20
2018-02-20T04:05:33.015Z,13.20
2018-02-20T04:08:01.320Z,13.20
2018-02-20T04:10:29.863Z,13.20
2018-02-20T04:12:58.198Z,13.20
2018-02-20T04:15:26.575Z,13.20
2018-02-20T04:17:54.900Z,13.20
2018-02-20T04:20:23.194Z,13.10
2018-02-20T04:22:51.883Z,13.10
2018-02-20T04:25:20.583Z,13.10
2018-02-20T04:27:48.876Z,13.10
2018-02-20T04:30:17.178Z,13.10
2018-02-20T04:32:45.475Z,13.10
2018-02-20T04:35:13.766Z,13.10
2018-02-20T04:37:42.114Z,13.10
2018-02-20T04:40:10.399Z,13.10
2018-02-20T04:42:39.115Z,13.10
2018-02-20T04:45:07.848Z,13.10
2018-02-20T04:47:36.147Z,13.10
2018-02-20T04:50:04.635Z,13.10
2018-02-20T04:52:32.920Z,13.10
2018-02-20T04:55:01.194Z,13.00
2018-02-20T04:57:29.505Z,13.00
2018-02-20T04:59:57.801Z,13.00
2018-02-20T05:02:26.098Z,13.00
2018-02-20T05:04:54.512Z,13.00
2018-02-20T05:07:22.805Z,13.00
2018-02-20T05:09:51.488Z,13.00
2018-02-20T05:12:20.307Z,13.00
2018-02-20T05:14:48.586Z,13.00
2018-02-20T05:17:16.905Z,13.00
2018-02-20T05:19:45.203Z,13.00
2018-02-20T05:22:13.765Z,13.00
2018-02-20T05:24:42.075Z,13.00
2018-02-20T05:27:10.358Z,13.00
2018-02-20T05:29:38.688Z,13.00
2018-02-20T05:32:06.995Z,13.00
2018-02-20T05:34:35.295Z,13.00
2018-02-20T05:37:03.709Z,13.00
2018-02-20T05:39:33.417Z,12.90
2018-02-20T05:42:01.695Z,13.00
2018-02-20T05:44:30.220Z,12.90
2018-02-20T05:46:59.040Z,12.90
2018-02-20T05:49:27.349Z,12.90
2018-02-20T05:51:55.640Z,12.90
2018-02-20T05:54:23.962Z,12.90
2018-02-20T05:56:52.618Z,12.90
2018-02-20T05:59:21.309Z,12.90
2018-02-20T06:01:49.666Z,12.90
2018-02-20T06:04:17.964Z,12.90
2018-02-20T06:06:46.412Z,12.90
2018-02-20T06:09:14.740Z,12.90
2018-02-20T06:11:43.162Z,12.90
2018-02-20T06:14:11.446Z,12.90
2018-02-20T06:16:40.151Z,12.90
2018-02-20T06:19:08.852Z,12.90
2018-02-20T06:21:37.179Z,12.90
2018-02-20T06:24:05.486Z,12.90
2018-02-20T06:26:33.795Z,12.90
2018-02-20T06:29:02.099Z,12.90
2018-02-20T06:31:30.491Z,12.90
2018-02-20T06:33:58.788Z,12.90
2018-02-20T06:36:27.107Z,12.90
2018-02-20T06:38:55.421Z,12.90
2018-02-20T06:41:23.712Z,12.90
2018-02-20T06:43:52.019Z,12.90
2018-02-20T06:46:21.087Z,12.90
2018-02-20T06:48:49.368Z,12.90
2018-02-20T06:51:17.948Z,12.90
2018-02-20T06:53:46.249Z,13.00
2018-02-20T06:56:14.945Z,13.00
2018-02-20T06:58:43.264Z,13.00
2018-02-20T07:01:11.556Z,13.10
2018-02-20T07:03:40.024Z,13.10
2018-02-20T07:06:08.321Z,13.10
2018-02-20T07:08:36.917Z,13.10
2018-02-20T07:11:05.622Z,13.20
2018-02-20T07:13:33.932Z,13.20
2018-02-20T07:16:02.237Z,13.30
2018-02-20T07:18:30.535Z,13.30
2018-02-20T07:20:59.233Z,13.60
2018-02-20T07:23:27.770Z,13.60
2018-02-20T07:25:56.148Z,13.90
2018-02-20T07:28:24.431Z,14.10
2018-02-20T07:30:52.804Z,14.20
2018-02-20T07:33:21.152Z,14.30
2018-02-20T07:35:49.435Z,14.40
2018-02-20T07:38:17.733Z,14.40
2018-02-20T07:40:46.044Z,14.40
2018-02-20T07:43:14.727Z,14.50
2018-02-20T07:45:43.884Z,14.50
2018-02-20T07:48:12.270Z,14.50
2018-02-20T07:50:40.558Z,14.60
2018-02-20T07:53:09.155Z,14.60
2018-02-20T07:55:37.508Z,14.60
2018-02-20T07:58:05.816Z,14.60
2018-02-20T08:00:34.536Z,14.60
2018-02-20T08:03:03.089Z,14.60
2018-02-20T08:05:31.477Z,14.70
2018-02-20T08:08:00.033Z,14.70
2018-02-20T08:10:28.495Z,14.70
2018-02-20T08:12:56.813Z,14.70
2018-02-20T08:15:25.501Z,14.80
2018-02-20T08:17:54.210Z,14.80
2018-02-20T08:20:22.497Z,14.90
2018-02-20T08:22:50.846Z,14.90
2018-02-20T08:25:19.585Z,15.00
2018-02-20T08:27:47.882Z,15.00
2018-02-20T08:30:16.205Z,15.10
2018-02-20T08:32:45.195Z,15.20
2018-02-20T08:35:13.499Z,15.30
2018-02-20T08:37:41.907Z,15.50
2018-02-20T08:40:10.202Z,15.90
2018-02-20T08:42:38.893Z,16.70
2018-02-20T08:45:07.232Z,16.70
2018-02-20T08:47:35.522Z,17.30
2018-02-20T08:50:03.883Z,17.70
2018-02-20T08:52:32.177Z,18.10
2018-02-20T08:55:00.467Z,18.50
2018-02-20T08:57:29.207Z,19.20
2018-02-20T08:59:57.499Z,19.10
2018-02-20T09:02:25.800Z,19.50
2018-02-20T09:04:54.288Z,19.80
2018-02-20T09:07:22.589Z,20.10
2018-02-20T09:09:51.479Z,20.70
2018-02-20T09:12:19.798Z,20.70
2018-02-20T09:14:48.517Z,21.00
2018-02-20T09:17:17.019Z,21.30
2018-02-20T09:19:45.812Z,22.00
2018-02-20T09:22:14.157Z,22.00
2018-02-20T09:24:42.491Z,22.30
2018-02-20T09:27:10.797Z,22.50
2018-02-20T09:29:39.389Z,22.80
2018-02-20T09:32:07.705Z,23.10
2018-02-20T09:34:36.001Z,23.40
2018-02-20T09:37:04.310Z,23.70
2018-02-20T09:39:32.655Z,24.00
2018-02-20T09:42:00.956Z,24.30
2018-02-20T09:44:29.315Z,24.60
2018-02-20T09:46:57.640Z,24.90
2018-02-20T09:49:26.342Z,25.40
2018-02-20T09:51:55.016Z,25.60
2018-02-20T09:54:23.387Z,25.60
2018-02-20T09:56:51.683Z,25.90
2018-02-20T09:59:20.008Z,26.10
2018-02-20T10:01:48.617Z,26.40
2018-02-20T10:04:16.958Z,26.50
2018-02-20T10:06:45.309Z,26.70
2018-02-20T10:09:13.613Z,26.90
2018-02-20T10:11:41.907Z,27.00
2018-02-20T10:14:10.218Z,27.10
2018-02-20T10:16:38.516Z,27.20
2018-02-20T10:19:06.837Z,27.20
2018-02-20T10:21:35.522Z,27.20
2018-02-20T10:24:03.835Z,27.20
2018-02-20T10:26:32.551Z,27.20
2018-02-20T10:29:00.838Z,27.20
2018-02-20T10:31:29.122Z,27.20
2018-02-20T10:33:57.516Z,27.20
2018-02-20T10:36:25.899Z,27.10
2018-02-20T10:38:54.212Z,27.00
2018-02-20T10:41:22.511Z,26.90
2018-02-20T10:43:50.795Z,26.80
2018-02-20T10:46:19.091Z,26.80
2018-02-20T10:48:47.384Z,26.80
2018-02-20T10:51:15.664Z,26.60
2018-02-20T10:53:43.987Z,26.50
2018-02-20T10:56:12.280Z,26.20
2018-02-20T10:58:40.559Z,26.00
2018-02-20T11:01:08.968Z,25.80
2018-02-20T11:03:37.691Z,26.00
2018-02-20T11:06:06.439Z,26.10
2018-02-20T11:08:35.040Z,26.10
2018-02-20T11:11:03.370Z,25.80
2018-02-20T11:13:32.004Z,25.70
2018-02-20T11:16:00.583Z,25.80
2018-02-20T11:18:28.914Z,25.80
2018-02-20T11:20:57.547Z,26.00
2018-02-20T11:23:25.869Z,26.20
2018-02-20T11:25:54.167Z,26.40
2018-02-20T11:28:22.460Z,26.60
2018-02-20T11:30:51.525Z,26.80
2018-02-20T11:33:20.460Z,26.80
2018-02-20T11:35:48.767Z,26.80
2018-02-20T11:38:17.063Z,27.00
2018-02-20T11:40:45.392Z,27.30
2018-02-20T11:43:13.730Z,27.50
2018-02-20T11:45:42.031Z,27.70
2018-02-20T11:48:10.328Z,28.00
2018-02-20T11:50:38.648Z,28.10
2018-02-20T11:53:06.944Z,28.30
2018-02-20T11:55:35.345Z,28.50
2018-02-20T11:58:03.881Z,28.60
2018-02-20T12:00:32.621Z,28.80
2018-02-20T12:03:00.960Z,29.00
2018-02-20T12:05:29.309Z,29.20
2018-02-20T12:07:58.002Z,29.50
2018-02-20T12:10:26.438Z,29.50
2018-02-20T12:12:54.730Z,29.70
2018-02-20T12:15:23.045Z,29.90
2018-02-20T12:17:51.349Z,30.20
2018-02-20T12:20:19.740Z,30.40
2018-02-20T12:22:48.007Z,30.60
2018-02-20T12:25:16.312Z,30.70
2018-02-20T12:27:44.660Z,30.90
2018-02-20T12:30:13.276Z,31.00
2018-02-20T12:32:42.043Z,31.30
2018-02-20T12:35:10.352Z,31.30
2018-02-20T12:37:38.678Z,31.40
2018-02-20T12:40:07.005Z,31.60
2018-02-20T12:42:35.975Z,31.90
2018-02-20T12:45:04.554Z,31.90
2018-02-20T12:47:33.010Z,32.00
2018-02-20T12:50:01.331Z,32.20
2018-02-20T12:52:29.901Z,32.30
2018-02-20T12:54:58.191Z,32.40
2018-02-20T12:57:26.859Z,32.40
2018-02-20T12:59:55.159Z,32.50
2018-02-20T13:02:23.857Z,32.60
2018-02-20T13:04:52.177Z,32.60
2018-02-20T13:07:20.564Z,32.70
2018-02-20T13:09:48.874Z,32.70
2018-02-20T13:12:17.318Z,32.80
2018-02-20T13:14:45.614Z,32.80
2018-02-20T13:17:14.195Z,32.80
2018-02-20T13:19:42.498Z,32.90
2018-02-20T13:22:11.370Z,32.80
2018-02-20T13:24:39.915Z,32.80
2018-02-20T13:27:08.630Z,32.80
2018-02-20T13:29:37.106Z,32.80
2018-02-20T13:32:05.400Z,32.80
2018-02-20T13:34:34.089Z,32.50
2018-02-20T13:37:03.739Z,32.40
2018-02-20T13:39:32.041Z,32.40
2018-02-20T13:42:00.420Z,32.40
2018-02-20T13:44:28.798Z,32.30
2018-02-20T13:46:57.086Z,32.30
2018-02-20T13:49:25.360Z,32.20
2018-02-20T13:51:53.677Z,32.20
2018-02-20T13:54:22.354Z,32.10
2018-02-20T13:56:51.324Z,32.00
2018-02-20T13:59:19.601Z,32.00
2018-02-20T14:01:47.963Z,32.00
2018-02-20T14:04:16.272Z,32.00
2018-02-20T14:06:44.639Z,31.90
2018-02-20T14:09:12.929Z,31.90
2018-02-20T14:11:41.654Z,31.70
2018-02-20T14:14:09.960Z,31.70
2018-02-20T14:16:38.278Z,31.70
2018-02-20T14:19:06.976Z,31.60
2018-02-20T14:21:35.323Z,31.60
2018-02-20T14:24:04.021Z,31.40
2018-02-20T14:26:32.705Z,31.30
2018-02-20T14:29:01.453Z,31.30
2018-02-20T14:31:29.937Z,31.30
2018-02-20T14:33:58.243Z,31.20
2018-02-20T14:36:26.548Z,31.10
2018-02-20T14:38:54.972Z,31.00
2018-02-20T14:41:23.267Z,30.80
2018-02-20T14:43:51.622Z,30.60
2018-02-20T14:46:19.934Z,30.40
2018-02-20T14:48:48.616Z,29.90
2018-02-20T14:51:16.912Z,29.90
2018-02-20T14:53:45.461Z,29.60
2018-02-20T14:56:13.780Z,29.40
2018-02-20T14:58:42.088Z,29.10
2018-02-20T15:01:10.387Z,29.00
2018-02-20T15:03:38.713Z,28.70
2018-02-20T15:06:07.019Z,28.50
2018-02-20T15:08:35.307Z,28.40
2018-02-20T15:11:03.603Z,28.20
2018-02-20T15:13:31.895Z,28.00
2018-02-20T15:16:00.575Z,27.70
2018-02-20T15:18:29.285Z,27.60
2018-02-20T15:20:57.710Z,27.60
2018-02-20T15:23:25.997Z,27.40
2018-02-20T15:25:54.345Z,27.30
2018-02-20T15:28:22.669Z,27.10
2018-02-20T15:30:51.362Z,26.80
2018-02-20T15:33:20.331Z,26.70
2018-02-20T15:35:48.667Z,26.70
2018-02-20T15:38:17.072Z,26.50
2018-02-20T15:40:45.424Z,26.40
2018-02-20T15:43:13.795Z,26.20
2018-02-20T15:45:42.174Z,26.10
2018-02-20T15:48:10.451Z,26.00
2018-02-20T15:50:38.917Z,25.90
2018-02-20T15:53:07.240Z,25.70
2018-02-20T15:55:35.991Z,25.50
2018-02-20T15:58:04.304Z,25.50
2018-02-20T16:00:32.584Z,25.30
2018-02-20T16:03:00.892Z,25.20
2018-02-20T16:05:29.237Z,25.00
2018-02-20T16:07:57.567Z,24.90
2018-02-20T16:10:25.856Z,24.70
2018-02-20T16:12:54.687Z,24.60
2018-02-20T16:15:22.980Z,24.40
2018-02-20T16:17:52.200Z,24.10
2018-02-20T16:20:20.913Z,23.90
2018-02-20T16:22:49.195Z,23.90
2018-02-20T16:25:17.594Z,23.80
2018-02-20T16:27:45.896Z,23.60
2018-02-20T16:30:14.192Z,23.40
2018-02-20T16:32:42.524Z,23.30
2018-02-20T16:35:10.812Z,23.20
2018-02-20T16:37:39.345Z,23.00
2018-02-20T16:40:07.643Z,22.90
2018-02-20T16:42:35.935Z,22.80
2018-02-20T16:45:04.276Z,22.60
2018-02-20T16:47:32.591Z,22.50
2018-02-20T16:50:00.884Z,22.40
2018-02-20T16:52:29.198Z,22.20
2018-02-20T16:54:57.873Z,22.00
2018-02-20T16:57:26.556Z,21.90
2018-02-20T16:59:55.240Z,21.70
2018-02-20T17:02:24.239Z,21.60
2018-02-20T17:04:52.548Z,21.60
2018-02-20T17:07:20.856Z,21.50
2018-02-20T17:09:49.191Z,21.40
2018-02-20T17:12:17.724Z,21.30
2018-02-20T17:14:46.016Z,21.20
2018-02-20T17:17:14.704Z,21.00
2018-02-20T17:19:43.675Z,20.90
2018-02-20T17:22:11.984Z,20.90
2018-02-20T17:24:40.295Z,20.80
2018-02-20T17:27:08.649Z,20.70
2018-02-20T17:29:36.938Z,20.60
2018-02-20T17:32:05.219Z,20.50
2018-02-20T17:34:33.521Z,20.50
2018-02-20T17:37:02.036Z,20.40
2018-02-20T17:39:30.756Z,20.30
2018-02-20T17:41:59.114Z,20.20
2018-02-20T17:44:27.912Z,20.10
2018-02-20T17:46:56.232Z,20.10
2018-02-20T17:49:24.540Z,20.00
2018-02-20T17:51:52.891Z,19.90
2018-02-20T17:54:21.194Z,19.80
2018-02-20T17:56:49.475Z,19.80
2018-02-20T17:59:18.191Z,19.60
2018-02-20T18:01:46.494Z,19.60
2018-02-20T18:04:14.881Z,19.60
2018-02-20T18:06:43.188Z,19.50
2018-02-20T18:09:11.463Z,19.40
2018-02-20T18:11:39.753Z,19.40
2018-02-20T18:14:08.834Z,19.30
2018-02-20T18:16:37.089Z,19.30
2018-02-20T18:19:05.367Z,19.20
2018-02-20T18:21:33.676Z,19.10
2018-02-20T18:24:02.359Z,19.00
2018-02-20T18:26:31.062Z,19.00
2018-02-20T18:28:59.381Z,19.00
2018-02-20T18:31:27.696Z,18.90
2018-02-20T18:33:56.367Z,18.80
2018-02-20T18:36:24.664Z,18.80
2018-02-20T18:38:53.352Z,18.70
2018-02-20T18:41:21.671Z,18.70
2018-02-20T18:43:49.976Z,18.70
2018-02-20T18:46:18.273Z,18.60
2018-02-20T18:48:47.144Z,18.50
2018-02-20T18:51:15.471Z,18.50
2018-02-20T18:53:43.846Z,18.40
2018-02-20T18:56:12.132Z,18.40
2018-02-20T18:58:40.420Z,18.40
2018-02-20T19:01:08.691Z,18.30
2018-02-20T19:03:36.989Z,18.30
2018-02-20T19:06:05.281Z,18.20
2018-02-20T19:08:33.624Z,18.20
2018-02-20T19:11:01.944Z,18.10
2018-02-20T19:13:30.235Z,18.10
2018-02-20T19:15:58.955Z,18.00
2018-02-20T19:18:27.480Z,18.00
2018-02-20T19:20:55.773Z,18.00
2018-02-20T19:23:24.066Z,17.90
2018-02-20T19:25:52.424Z,17.90
2018-02-20T19:28:20.811Z,17.90
2018-02-20T19:30:49.522Z,17.80
2018-02-20T19:33:19.060Z,17.80
2018-02-20T19:35:47.542Z,17.70
2018-02-20T19:38:15.857Z,17.70
2018-02-20T19:40:44.513Z,17.70
2018-02-20T19:43:13.212Z,17.60
2018-02-20T19:45:41.511Z,17.60
2018-02-20T19:48:09.905Z,17.50
2018-02-20T19:50:38.244Z,17.50
2018-02-20T19:53:06.522Z,17.50
2018-02-20T19:55:34.884Z,17.40
2018-02-20T19:58:03.302Z,17.40
2018-02-20T20:00:32.509Z,17.40
2018-02-20T20:03:00.837Z,17.40
2018-02-20T20:05:29.118Z,17.30
2018-02-20T20:07:57.456Z,17.30
2018-02-20T20:10:25.871Z,17.20
2018-02-20T20:12:54.228Z,17.20
2018-02-20T20:15:22.941Z,17.10
2018-02-20T20:17:51.271Z,17.10
2018-02-20T20:20:19.553Z,17.10
2018-02-20T20:22:47.832Z,17.10
2018-02-20T20:25:16.179Z,17.00
2018-02-20T20:27:44.505Z,17.00
2018-02-20T20:30:13.410Z,17.00
2018-02-20T20:32:41.768Z,17.00
2018-02-20T20:35:10.084Z,16.90
2018-02-20T20:37:38.371Z,16.90
2018-02-20T20:40:06.863Z,16.90
2018-02-20T20:42:35.519Z,16.80
2018-02-20T20:45:03.875Z,16.80
2018-02-20T20:47:32.183Z,16.80
2018-02-20T20:50:00.463Z,16.80
2018-02-20T20:52:28.780Z,16.70
2018-02-20T20:54:57.573Z,16.70
2018-02-20T20:57:25.863Z,16.70
2018-02-20T20:59:54.262Z,16.60
2018-02-20T21:02:23.368Z,16.60
2018-02-20T21:04:52.144Z,16.60
2018-02-20T21:07:20.447Z,16.60
2018-02-20T21:09:48.740Z,16.60
2018-02-20T21:12:17.450Z,16.50
2018-02-20T21:14:45.770Z,16.50
2018-02-20T21:17:14.064Z,16.50
2018-02-20T21:19:43.063Z,16.40
2018-02-20T21:22:11.342Z,16.40
2018-02-20T21:24:39.655Z,16.40
2018-02-20T21:27:07.941Z,16.40
2018-02-20T21:29:36.247Z,16.40
2018-02-20T21:32:04.924Z,16.30
2018-02-20T21:34:33.200Z,16.30
2018-02-20T21:37:01.576Z,16.30
2018-02-20T21:39:29.864Z,16.30
2018-02-20T21:41:58.227Z,16.30
2018-02-20T21:44:26.524Z,16.20
2018-02-20T21:46:55.624Z,16.20
2018-02-20T21:49:23.923Z,16.20
2018-02-20T21:51:52.639Z,16.10
2018-02-20T21:54:20.919Z,16.10
2018-02-20T21:56:49.203Z,16.10
2018-02-20T21:59:17.516Z,16.10
2018-02-20T22:01:45.805Z,16.10
2018-02-20T22:04:18.901Z,16.00
2018-02-20T22:06:47.864Z,16.00
2018-02-20T22:09:16.283Z,16.00
2018-02-20T22:11:44.584Z,16.10
2018-02-20T22:14:13.044Z,16.20
2018-02-20T22:16:41.335Z,16.40
2018-02-20T22:19:09.639Z,16.60
2018-02-20T22:21:38.047Z,16.80
2018-02-20T22:24:06.346Z,16.90
2018-02-20T22:26:34.677Z,17.10
2018-02-20T22:29:02.976Z,17.10
2018-02-20T22:31:31.275Z,17.10
2018-02-20T22:33:59.650Z,17.00
2018-02-20T22:36:28.086Z,16.90
2018-02-20T22:38:56.602Z,16.80
2018-02-20T22:41:24.967Z,16.80
2018-02-20T22:43:53.267Z,16.70
2018-02-20T22:46:21.611Z,16.60
2018-02-20T22:48:50.588Z,16.40
2018-02-20T22:51:19.153Z,16.40
2018-02-20T22:53:47.616Z,16.00
2018-02-20T22:56:16.003Z,15.50
2018-02-20T22:58:44.391Z,15.50
2018-02-20T23:01:13.797Z,15.60
2018-02-20T23:03:42.873Z,15.70
2018-02-20T23:06:11.204Z,15.70
2018-02-20T23:08:39.785Z,15.70
2018-02-20T23:11:08.101Z,15.80
2018-02-20T23:13:36.388Z,15.80
2018-02-20T23:16:04.723Z,15.80
2018-02-20T23:18:33.020Z,15.80
2018-02-20T23:21:01.809Z,15.80
2018-02-20T23:23:30.140Z,15.80
2018-02-20T23:25:58.575Z,15.80
2018-02-20T23:28:27.116Z,15.80
2018-02-20T23:30:55.703Z,15.80
2018-02-20T23:33:23.994Z,15.80
2018-02-20T23:35:52.665Z,15.70
2018-02-20T23:38:20.967Z,15.80
2018-02-20T23:40:49.711Z,15.70
2018-02-20T23:43:18.089Z,15.70
2018-02-20T23:45:46.383Z,15.70
2018-02-20T23:48:14.666Z,15.70
2018-02-20T23:50:42.956Z,15.60
2018-02-20T23:53:11.627Z,15.60
2018-02-20T23:55:39.935Z,15.60
2018-02-20T23:58:08.236Z,15.60
